| time (UTC) | temp C | wind direction | speed KPH | gust KPH | rain 1hr cm | rain 24hr cm | rain mn cm | humidity % | barometer mb |
| 20260508115515 | 9 | 299 | 14.5 | 33.8 | 0.05 | 0.99 | 0.66 | 91 | 998.5 |
| 20260508115008 | 9 | 258 | 19.3 | 33.8 | 0.05 | 0.99 | 0.66 | 91 | 998.5 |
| 20260508114525 | 9 | 286 | 16.1 | 40.2 | 0.05 | 0.99 | 0.66 | 91 | 998.5 |
| 20260508114013 | 10 | 305 | 16.1 | 40.2 | 0.05 | 0.99 | 0.66 | 91 | 998.6 |
| 20260508113510 | 9 | 282 | 11.3 | 37.0 | 0.03 | 0.97 | 0.64 | 90 | 998.5 |
| 20260508113008 | 9 | 226 | 14.5 | 30.6 | 0.03 | 0.97 | 0.64 | 91 | 998.4 |
| 20260508112508 | 9 | 253 | 14.5 | 30.6 | 0.03 | 0.97 | 0.64 | 91 | 998.4 |
| 20260508112010 | 9 | 316 | 16.1 | 30.6 | 0.03 | 0.97 | 0.64 | 91 | 998.3 |
| 20260508111539 | 9 | 277 | 14.5 | 29.0 | 0.03 | 0.97 | 0.64 | 92 | 998.3 |
| 20260508111009 | 9 | 273 | 12.9 | 32.2 | 0.05 | 0.97 | 0.64 | 91 | 998.3 |
| 20260508110508 | 9 | 265 | 16.1 | 32.2 | 0.05 | 0.97 | 0.64 | 91 | 998.1 |
| 20260508110021 | 9 | 234 | 16.1 | 33.8 | 0.05 | 0.97 | 0.64 | 91 | 998.1 |
| 20260508105512 | 9 | 266 | 19.3 | 33.8 | 0.03 | 0.94 | 0.61 | 91 | 998.0 |
| 20260508105010 | 9 | 206 | 20.9 | 37.0 | 0.03 | 0.97 | 0.61 | 91 | 997.9 |
| 20260508104525 | 9 | 284 | 14.5 | 37.0 | 0.03 | 0.97 | 0.61 | 91 | 997.8 |
| 20260508104010 | 9 | 289 | 19.3 | 38.6 | 0.03 | 0.97 | 0.61 | 92 | 997.7 |
| 20260508103510 | 9 | 342 | 19.3 | 38.6 | 0.03 | 0.97 | 0.61 | 92 | 997.6 |
| 20260508103031 | 9 | 286 | 16.1 | 37.0 | 0.03 | 0.97 | 0.61 | 92 | 997.4 |
| 20260508102509 | 9 | 257 | 11.3 | 32.2 | 0.03 | 0.97 | 0.61 | 91 | 997.3 |
| 20260508102010 | 9 | 288 | 11.3 | 40.2 | 0.03 | 0.97 | 0.61 | 91 | 997.2 |
| 20260508101516 | 10 | 308 | 9.7 | 40.2 | 0.03 | 0.97 | 0.61 | 91 | 997.2 |
| 20260508101008 | 10 | 247 | 22.5 | 40.2 | 0.03 | 0.97 | 0.58 | 90 | 997.2 |
| 20260508100507 | 10 | 281 | 8.0 | 32.2 | 0.03 | 0.97 | 0.58 | 90 | 997.1 |
| 20260508100022 | 10 | 297 | 12.9 | 32.2 | 0.03 | 0.97 | 0.58 | 90 | 997.0 |
| 20260508095507 | 10 | 214 | 12.9 | 33.8 | 0.03 | 0.99 | 0.58 | 90 | 996.9 |
| 20260508095013 | 10 | 265 | 17.7 | 33.8 | 0.03 | 1.04 | 0.58 | 90 | 996.9 |
| 20260508094522 | 10 | 314 | 12.9 | 30.6 | 0.03 | 1.07 | 0.58 | 90 | 996.7 |
| 20260508094009 | 10 | 270 | 16.1 | 33.8 | 0.03 | 1.09 | 0.58 | 90 | 996.7 |
| 20260508093514 | 10 | 233 | 19.3 | 33.8 | 0.03 | 1.09 | 0.58 | 90 | 996.6 |
| 20260508093027 | 10 | 239 | 14.5 | 40.2 | 0.03 | 1.09 | 0.58 | 90 | 996.5 |
| 20260508092508 | 10 | 243 | 19.3 | 40.2 | 0.03 | 1.09 | 0.58 | 90 | 996.5 |
| 20260508092012 | 10 | 255 | 16.1 | 32.2 | 0.03 | 1.09 | 0.58 | 89 | 996.5 |
| 20260508091528 | 10 | 256 | 16.1 | 32.2 | 0.03 | 1.09 | 0.58 | 89 | 996.5 |
| 20260508091011 | 10 | 267 | 12.9 | 27.4 | 0.00 | 1.07 | 0.56 | 88 | 996.5 |
| 20260508090509 | 10 | 260 | 16.1 | 37.0 | 0.00 | 1.09 | 0.56 | 88 | 996.4 |
| 20260508090016 | 10 | 256 | 11.3 | 37.0 | 0.00 | 1.09 | 0.56 | 88 | 996.5 |
| 20260508085506 | 10 | 272 | 17.7 | 35.4 | 0.00 | 1.09 | 0.56 | 87 | 996.3 |
| 20260508085007 | 10 | 260 | 17.7 | 43.5 | 0.00 | 1.12 | 0.56 | 88 | 996.5 |
| 20260508084519 | 10 | 242 | 19.3 | 43.5 | 0.00 | 1.12 | 0.56 | 88 | 996.3 |
| 20260508084011 | 10 | 269 | 17.7 | 30.6 | 0.00 | 1.14 | 0.56 | 89 | 996.2 |
| 20260508083509 | 10 | 279 | 19.3 | 37.0 | 0.00 | 1.17 | 0.56 | 88 | 996.2 |
| 20260508083025 | 10 | 292 | 22.5 | 37.0 | 0.00 | 1.19 | 0.56 | 88 | 996.1 |
| 20260508082508 | 11 | 276 | 20.9 | 38.6 | 0.00 | 1.19 | 0.56 | 88 | 996.0 |
| 20260508082013 | 11 | 262 | 17.7 | 41.8 | 0.00 | 1.22 | 0.56 | 88 | 995.9 |
| 20260508081526 | 11 | 256 | 19.3 | 41.8 | 0.00 | 1.22 | 0.56 | 88 | 995.9 |
| 20260508081014 | 11 | 285 | 14.5 | 33.8 | 0.00 | 1.24 | 0.56 | 89 | 995.9 |
| 20260508080510 | 11 | 245 | 12.9 | 37.0 | 0.00 | 1.27 | 0.56 | 89 | 995.7 |
| 20260508080035 | 11 | 265 | 19.3 | 37.0 | 0.00 | 1.32 | 0.56 | 89 | 995.7 |
| 20260508075512 | 11 | 198 | 14.5 | 30.6 | 0.00 | 1.32 | 0.56 | 88 | 995.6 |
| 20260508075009 | 11 | 241 | 11.3 | 33.8 | 0.08 | 1.37 | 0.56 | 88 | 995.7 |
| 20260508074518 | 11 | 247 | 11.3 | 43.5 | 0.08 | 1.40 | 0.56 | 88 | 995.7 |
| 20260508074007 | 11 | 265 | 22.5 | 43.5 | 0.13 | 1.42 | 0.56 | 88 | 995.8 |
| 20260508073509 | 11 | 230 | 17.7 | 46.7 | 0.13 | 1.45 | 0.56 | 89 | 995.9 |
| 20260508073002 | 11 | 222 | 19.3 | 46.7 | 0.13 | 1.45 | 0.56 | 89 | 995.9 |
| 20260508072507 | 11 | 266 | 19.3 | 30.6 | 0.13 | 1.45 | 0.56 | 89 | 995.9 |
| 20260508072003 | 11 | 228 | 12.9 | 29.0 | 0.13 | 1.47 | 0.56 | 89 | 995.8 |
| 20260508071503 | 11 | 272 | 16.1 | 29.0 | 0.13 | 1.47 | 0.56 | 90 | 995.8 |
| 20260508071004 | 11 | 258 | 9.7 | 40.2 | 0.15 | 1.47 | 0.56 | 91 | 995.9 |
| 20260508070507 | 11 | 245 | 9.7 | 40.2 | 0.18 | 1.47 | 0.56 | 91 | 996.0 |
| 20260508070009 | 11 | 237 | 14.5 | 27.4 | 0.23 | 1.47 | 0.56 | 91 | 996.0 |
| 20260508065505 | 11 | 251 | 14.5 | 41.8 | 0.23 | 1.47 | 0.56 | 91 | 996.0 |
| 20260508065008 | 11 | 267 | 19.3 | 41.8 | 0.18 | 1.40 | 0.48 | 91 | 995.9 |
| 20260508064520 | 11 | 259 | 17.7 | 35.4 | 0.20 | 1.42 | 0.48 | 90 | 996.1 |
| 20260508064008 | 12 | 240 | 16.1 | 35.4 | 0.20 | 1.40 | 0.43 | 90 | 996.0 |
| 20260508063507 | 12 | 254 | 22.5 | 35.4 | 0.20 | 1.47 | 0.43 | 90 | 996.1 |
| 20260508063023 | 12 | 251 | 16.1 | 33.8 | 0.30 | 1.60 | 0.43 | 91 | 996.1 |
| 20260508062508 | 11 | 233 | 19.3 | 45.1 | 0.33 | 1.80 | 0.43 | 92 | 996.0 |
| 20260508062003 | 12 | 249 | 22.5 | 43.5 | 0.36 | 2.06 | 0.43 | 92 | 996.0 |
| 20260508061505 | 12 | 265 | 20.9 | 41.8 | 0.38 | 2.79 | 0.43 | 92 | 996.0 |
| 20260508061006 | 12 | 268 | 19.3 | 38.6 | 0.38 | 3.05 | 0.41 | 92 | 995.8 |
| 20260508060506 | 12 | 278 | 14.5 | 37.0 | 0.38 | 3.15 | 0.38 | 92 | 995.8 |
| 20260508060012 | 12 | 251 | 17.7 | 33.8 | 0.33 | 3.33 | 0.33 | 92 | 995.8 |
| 20260508055503 | 12 | 305 | 19.3 | 30.6 | 0.33 | 3.33 | 0.33 | 92 | 995.7 |
| 20260508055004 | 12 | 269 | 19.3 | 35.4 | 0.30 | 3.30 | 0.30 | 92 | 995.5 |
| 20260508054516 | 12 | 233 | 17.7 | 35.4 | 0.28 | 3.35 | 0.28 | 92 | 995.5 |
| 20260508054008 | 12 | 240 | 16.1 | 29.0 | 0.23 | 3.30 | 0.23 | 92 | 995.5 |
| 20260508053511 | 12 | 267 | 16.1 | 27.4 | 0.23 | 3.30 | 0.23 | 92 | 995.9 |
| 20260508053021 | 12 | 312 | 12.9 | 25.7 | 0.13 | 3.20 | 0.13 | 92 | 995.8 |
| 20260508052511 | 12 | 283 | 12.9 | 20.9 | 0.10 | 3.17 | 0.10 | 91 | 995.9 |
| 20260508052008 | 12 | 311 | 8.0 | 19.3 | 0.08 | 3.15 | 0.08 | 91 | 996.1 |
| 20260508051520 | 12 | 272 | 11.3 | 22.5 | 0.05 | 3.12 | 0.05 | 90 | 996.4 |
| 20260508051003 | 12 | 294 | 9.7 | 22.5 | 0.03 | 3.10 | 0.03 | 89 | 996.3 |
| 20260508050510 | 12 | 294 | 11.3 | 20.9 | 0.00 | 3.07 | 0.00 | 88 | 996.2 |
| 20260508050017 | 13 | 291 | 11.3 | 20.9 | 0.00 | 3.07 | 0.00 | 87 | 996.1 |
| 20260508045504 | 13 | 347 | 9.7 | 20.9 | 0.00 | 3.07 | 0.00 | 86 | 996.0 |
| 20260508045004 | 13 | 271 | 9.7 | 20.9 | 0.00 | 3.07 | 0.00 | 85 | 996.3 |
| 20260508044507 | 13 | 268 | 9.7 | 22.5 | 0.00 | 3.07 | 0.00 | 85 | 996.3 |
| 20260508044009 | 13 | 310 | 8.0 | 22.5 | 0.00 | 3.07 | 0.00 | 84 | 996.3 |
| 20260508043507 | 13 | 271 | 9.7 | 30.6 | 0.00 | 3.07 | 0.00 | 84 | 996.2 |
| 20260508043013 | 13 | 295 | 6.4 | 30.6 | 0.00 | 3.07 | 0.00 | 84 | 996.3 |
| 20260508042510 | 13 | 251 | 12.9 | 24.1 | 0.00 | 3.07 | 0.00 | 83 | 996.4 |
| 20260508042007 | 13 | 254 | 9.7 | 29.0 | 0.00 | 3.07 | 0.00 | 83 | 996.0 |
| 20260508041519 | 13 | 251 | 11.3 | 29.0 | 0.00 | 3.07 | 0.00 | 83 | 996.0 |
| 20260508041007 | 13 | 340 | 14.5 | 24.1 | 0.00 | 3.07 | 0.00 | 83 | 996.1 |
| 20260508040510 | 13 | 244 | 11.3 | 30.6 | 0.00 | 3.07 | 0.00 | 83 | 996.2 |
| 20260508040035 | 13 | 249 | 14.5 | 30.6 | 0.00 | 3.07 | 0.00 | 83 | 996.3 |
| 20260508035503 | 13 | 272 | 9.7 | 27.4 | 0.00 | 3.07 | 0.00 | 83 | 996.2 |
| 20260508035002 | 13 | 269 | 16.1 | 25.7 | 0.00 | 3.07 | 0.00 | 83 | 996.4 |
| 20260508034507 | 13 | 243 | 9.7 | 24.1 | 0.00 | 3.07 | 0.00 | 83 | 996.5 |
| 20260508034002 | 13 | 268 | 6.4 | 27.4 | 0.00 | 3.07 | 0.00 | 82 | 996.3 |
| 20260508033507 | 13 | 256 | 14.5 | 27.4 | 0.00 | 3.07 | 0.00 | 82 | 996.3 |
| 20260508033012 | 13 | 289 | 11.3 | 32.2 | 0.00 | 3.07 | 0.00 | 81 | 996.4 |
| 20260508032506 | 13 | 274 | 12.9 | 32.2 | 0.00 | 3.07 | 0.00 | 80 | 996.4 |
| 20260508032007 | 13 | 260 | 14.5 | 30.6 | 0.00 | 3.07 | 0.00 | 81 | 996.3 |
| 20260508031525 | 13 | 299 | 12.9 | 30.6 | 0.00 | 3.07 | 0.00 | 80 | 996.4 |
| 20260508031008 | 13 | 278 | 14.5 | 29.0 | 0.00 | 3.07 | 0.00 | 81 | 996.4 |
| 20260508030511 | 13 | 256 | 12.9 | 32.2 | 0.00 | 3.07 | 0.00 | 80 | 996.4 |
| 20260508030022 | 13 | 243 | 14.5 | 32.2 | 0.00 | 3.07 | 0.00 | 80 | 996.4 |
| 20260508025508 | 13 | 266 | 14.5 | 22.5 | 0.00 | 3.07 | 3.07 | 79 | 996.5 |
| 20260508025008 | 13 | 274 | 6.4 | 24.1 | 0.00 | 3.07 | 3.07 | 79 | 996.2 |
| 20260508024540 | 13 | 274 | 12.9 | 24.1 | 0.00 | 3.07 | 3.07 | 79 | 996.2 |
| 20260508024003 | 13 | 270 | 12.9 | 25.7 | 0.00 | 3.07 | 3.07 | 78 | 996.1 |
| 20260508023504 | 13 | 237 | 9.7 | 25.7 | 0.00 | 3.07 | 3.07 | 78 | 996.1 |
| 20260508023022 | 14 | 272 | 14.5 | 25.7 | 0.00 | 3.07 | 3.07 | 78 | 996.5 |
| 20260508022504 | 13 | 220 | 14.5 | 25.7 | 0.00 | 3.07 | 3.07 | 78 | 996.6 |
| 20260508022007 | 13 | 279 | 9.7 | 20.9 | 0.00 | 3.07 | 3.07 | 78 | 996.6 |
| 20260508021515 | 13 | 330 | 8.0 | 22.5 | 0.00 | 3.07 | 3.07 | 78 | 996.5 |
| 20260508021010 | 13 | 249 | 14.5 | 22.5 | 0.00 | 3.07 | 3.07 | 77 | 996.6 |
| 20260508020508 | 13 | 273 | 12.9 | 22.5 | 0.00 | 3.07 | 3.07 | 77 | 996.9 |
| 20260508020020 | 13 | 293 | 11.3 | 25.7 | 0.00 | 3.07 | 3.07 | 77 | 997.1 |
| 20260508015507 | 14 | 260 | 11.3 | 37.0 | 0.00 | 3.07 | 3.07 | 77 | 997.4 |
| 20260508015008 | 13 | 240 | 17.7 | 37.0 | 0.00 | 3.07 | 3.07 | 76 | 997.2 |
| 20260508014543 | 13 | 263 | 11.3 | 25.7 | 0.00 | 3.07 | 3.07 | 77 | 997.1 |
| 20260508014011 | 13 | 245 | 11.3 | 22.5 | 0.00 | 3.07 | 3.07 | 77 | 997.3 |
| 20260508013509 | 14 | 262 | 11.3 | 22.5 | 0.00 | 3.07 | 3.07 | 78 | 997.3 |
| 20260508013008 | 14 | 278 | 9.7 | 25.7 | 0.00 | 3.07 | 3.07 | 78 | 997.2 |
| 20260508012503 | 14 | 278 | 11.3 | 25.7 | 0.00 | 3.07 | 3.07 | 78 | 997.3 |
| 20260508012004 | 14 | 268 | 14.5 | 25.7 | 0.00 | 3.07 | 3.07 | 78 | 997.3 |
| 20260508011512 | 14 | 249 | 9.7 | 25.7 | 0.00 | 3.07 | 3.07 | 78 | 997.6 |
| 20260508011007 | 14 | 262 | 11.3 | 25.7 | 0.00 | 3.07 | 3.07 | 78 | 997.8 |
| 20260508010505 | 14 | 249 | 14.5 | 30.6 | 0.00 | 3.07 | 3.07 | 77 | 997.9 |
| 20260508010026 | 14 | 247 | 14.5 | 30.6 | 0.00 | 3.07 | 3.07 | 78 | 998.0 |
| 20260508005510 | 14 | 233 | 6.4 | 25.7 | 0.00 | 3.07 | 3.07 | 78 | 998.1 |
| 20260508005009 | 14 | 299 | 14.5 | 24.1 | 0.00 | 3.07 | 3.07 | 78 | 998.3 |
| 20260508004524 | 14 | 232 | 14.5 | 30.6 | 0.00 | 3.07 | 3.07 | 78 | 998.3 |
| 20260508004011 | 14 | 283 | 9.7 | 30.6 | 0.00 | 3.07 | 3.07 | 79 | 998.2 |
| 20260508003507 | 14 | 275 | 14.5 | 32.2 | 0.00 | 3.07 | 3.07 | 79 | 998.2 |
| 20260508003048 | 14 | 229 | 17.7 | 32.2 | 0.00 | 3.07 | 3.07 | 80 | 998.3 |
| 20260508002513 | 14 | 295 | 14.5 | 25.7 | 0.00 | 3.07 | 3.07 | 79 | 998.0 |
| 20260508002008 | 14 | 266 | 14.5 | 27.4 | 0.00 | 3.07 | 3.07 | 79 | 998.1 |
| 20260508001508 | 14 | 291 | 17.7 | 33.8 | 0.00 | 3.07 | 3.07 | 79 | 998.2 |
| 20260508001004 | 14 | 301 | 14.5 | 33.8 | 0.00 | 3.07 | 3.07 | 79 | 998.4 |
| 20260508000505 | 14 | 254 | 14.5 | 29.0 | 0.00 | 3.07 | 3.07 | 79 | 998.6 |
| 20260508000016 | 15 | 270 | 11.3 | 29.0 | 0.00 | 3.07 | 3.07 | 78 | 998.8 |
| 20260507235512 | 15 | 300 | 14.5 | 29.0 | 0.00 | 3.07 | 3.07 | 79 | 998.8 |
| 20260507235008 | 15 | 287 | 17.7 | 29.0 | 0.00 | 3.07 | 3.07 | 79 | 998.9 |
| 20260507234521 | 15 | 231 | 14.5 | 29.0 | 0.00 | 3.07 | 3.07 | 80 | 998.8 |
| 20260507234008 | 15 | 307 | 14.5 | 29.0 | 0.00 | 3.07 | 3.07 | 81 | 999.0 |
| 20260507233510 | 15 | 267 | 16.1 | 33.8 | 0.00 | 3.07 | 3.07 | 81 | 999.0 |
| 20260507233031 | 15 | 287 | 11.3 | 33.8 | 0.00 | 3.07 | 3.07 | 81 | 999.2 |
| 20260507232511 | 15 | 290 | 16.1 | 27.4 | 0.00 | 3.07 | 3.07 | 81 | 999.2 |
| 20260507232010 | 15 | 258 | 14.5 | 27.4 | 0.00 | 3.07 | 3.07 | 81 | 999.3 |
| 20260507231530 | 15 | 295 | 12.9 | 25.7 | 0.00 | 3.07 | 3.07 | 81 | 999.3 |
| 20260507231014 | 15 | 303 | 14.5 | 25.7 | 0.00 | 3.07 | 3.07 | 81 | 999.5 |
| 20260507230507 | 15 | 258 | 12.9 | 30.6 | 0.00 | 3.07 | 3.07 | 82 | 999.6 |
| 20260507230016 | 15 | 239 | 17.7 | 33.8 | 0.00 | 3.07 | 3.07 | 82 | 999.7 |
| 20260507225512 | 15 | 285 | 14.5 | 33.8 | 0.00 | 3.07 | 3.07 | 82 | 999.6 |
| 20260507225007 | 15 | 239 | 11.3 | 25.7 | 0.00 | 3.07 | 3.07 | 83 | 999.7 |
| 20260507224517 | 15 | 281 | 12.9 | 33.8 | 0.00 | 3.07 | 3.07 | 83 | 999.7 |
| 20260507224013 | 15 | 285 | 11.3 | 33.8 | 0.00 | 3.07 | 3.07 | 84 | 999.8 |
| 20260507223508 | 15 | 268 | 14.5 | 29.0 | 0.00 | 3.07 | 3.07 | 84 | 999.7 |
| 20260507223021 | 15 | 276 | 16.1 | 25.7 | 0.00 | 3.07 | 3.07 | 84 | 999.6 |
| 20260507222508 | 15 | 270 | 11.3 | 25.7 | 0.00 | 3.07 | 3.07 | 84 | 999.3 |
| 20260507222004 | 15 | 317 | 11.3 | 22.5 | 0.00 | 3.07 | 3.07 | 84 | 998.9 |
| 20260507221507 | 15 | 270 | 14.5 | 22.5 | 0.00 | 3.07 | 3.07 | 84 | 998.8 |
| 20260507221009 | 15 | 266 | 9.7 | 19.3 | 0.00 | 3.07 | 3.07 | 84 | 998.5 |
| 20260507220506 | 15 | 265 | 8.0 | 17.7 | 0.00 | 3.07 | 3.07 | 85 | 998.5 |
| 20260507220007 | 15 | 259 | 6.4 | 20.9 | 0.00 | 3.07 | 3.07 | 85 | 998.5 |
| 20260507215506 | 15 | 274 | 9.7 | 20.9 | 0.00 | 3.07 | 3.07 | 85 | 998.4 |
| 20260507215005 | 15 | 258 | 6.4 | 24.1 | 0.00 | 3.07 | 3.07 | 85 | 998.4 |
| 20260507214514 | 15 | 288 | 9.7 | 24.1 | 0.00 | 3.07 | 3.07 | 84 | 998.2 |
| 20260507214007 | 15 | 239 | 16.1 | 24.1 | 0.00 | 3.07 | 3.07 | 85 | 998.0 |
| 20260507213507 | 15 | 274 | 9.7 | 20.9 | 0.00 | 3.07 | 3.07 | 85 | 997.6 |
| 20260507213020 | 15 | 310 | 9.7 | 24.1 | 0.00 | 3.07 | 3.07 | 84 | 997.4 |
| 20260507212509 | 15 | 269 | 12.9 | 24.1 | 0.00 | 3.07 | 3.07 | 85 | 997.3 |
| 20260507212012 | 15 | 227 | 11.3 | 25.7 | 0.00 | 3.07 | 3.07 | 85 | 997.4 |
| 20260507211529 | 16 | 251 | 14.5 | 25.7 | 0.00 | 3.07 | 3.07 | 86 | 997.6 |
| 20260507211004 | 16 | 268 | 9.7 | 25.7 | 0.00 | 3.07 | 3.07 | 87 | 997.8 |
| 20260507210504 | 16 | 269 | 14.5 | 25.7 | 0.00 | 3.07 | 3.07 | 86 | 997.9 |
| 20260507210006 | 16 | 287 | 9.7 | 16.1 | 0.00 | 3.07 | 3.07 | 87 | 998.2 |
| 20260507205505 | 16 | 299 | 6.4 | 16.1 | 0.00 | 3.07 | 3.07 | 87 | 998.4 |
| 20260507205007 | 16 | 278 | 4.8 | 17.7 | 0.00 | 3.07 | 3.07 | 86 | 998.5 |
| 20260507204514 | 16 | 276 | 6.4 | 17.7 | 0.00 | 3.07 | 3.07 | 86 | 998.3 |
| 20260507204005 | 16 | 258 | 8.0 | 17.7 | 0.00 | 3.07 | 3.07 | 86 | 998.1 |
| 20260507203506 | 16 | 271 | 4.8 | 19.3 | 0.00 | 3.07 | 3.07 | 86 | 998.1 |
| 20260507203018 | 16 | 247 | 8.0 | 20.9 | 0.00 | 3.07 | 3.07 | 86 | 998.3 |
| 20260507202508 | 16 | 276 | 9.7 | 20.9 | 0.00 | 3.07 | 3.07 | 86 | 998.2 |
| 20260507202010 | 16 | 286 | 4.8 | 19.3 | 0.00 | 3.07 | 3.07 | 86 | 998.3 |
| 20260507201526 | 16 | 257 | 8.0 | 19.3 | 0.00 | 3.07 | 3.07 | 85 | 998.3 |
| 20260507201010 | 16 | 261 | 12.9 | 19.3 | 0.00 | 3.07 | 3.07 | 85 | 998.4 |
| 20260507200510 | 16 | 259 | 8.0 | 22.5 | 0.00 | 3.07 | 3.07 | 85 | 998.3 |
| 20260507200025 | 16 | 266 | 8.0 | 29.0 | 0.00 | 3.07 | 3.07 | 85 | 998.7 |
| 20260507195503 | 16 | 267 | 12.9 | 29.0 | 0.00 | 3.07 | 3.07 | 85 | 998.8 |
| 20260507195003 | 16 | 251 | 14.5 | 24.1 | 0.00 | 3.07 | 3.07 | 85 | 998.6 |
| 20260507194510 | 16 | 249 | 9.7 | 22.5 | 0.00 | 3.07 | 3.07 | 85 | 998.5 |
| 20260507194007 | 16 | 278 | 12.9 | 32.2 | 0.00 | 3.07 | 3.07 | 84 | 998.7 |
| 20260507193507 | 16 | 243 | 19.3 | 32.2 | 0.00 | 3.07 | 3.07 | 84 | 998.8 |
| 20260507193016 | 16 | 270 | 12.9 | 24.1 | 0.00 | 3.07 | 3.07 | 84 | 998.8 |
| 20260507192509 | 16 | 245 | 11.3 | 22.5 | 0.00 | 3.07 | 3.07 | 85 | 998.7 |
| 20260507192008 | 16 | 270 | 9.7 | 22.5 | 0.00 | 3.07 | 3.07 | 85 | 998.4 |
| 20260507191520 | 16 | 284 | 9.7 | 27.4 | 0.00 | 3.07 | 3.07 | 86 | 998.7 |
| 20260507191011 | 16 | 272 | 9.7 | 27.4 | 0.00 | 3.07 | 3.07 | 86 | 999.0 |
| 20260507190510 | 16 | 253 | 11.3 | 25.7 | 0.00 | 3.07 | 3.07 | 85 | 999.0 |
| 20260507190023 | 16 | 250 | 12.9 | 33.8 | 0.00 | 3.07 | 3.07 | 86 | 998.8 |
| 20260507185510 | 16 | 249 | 17.7 | 33.8 | 0.00 | 3.07 | 3.07 | 85 | 998.9 |
| 20260507185009 | 17 | 265 | 22.5 | 30.6 | 0.00 | 3.07 | 3.07 | 85 | 998.9 |
| 20260507184512 | 17 | 244 | 8.0 | 16.1 | 0.00 | 3.07 | 3.07 | 86 | 998.9 |
| 20260507184005 | 17 | 251 | 8.0 | 22.5 | 0.00 | 3.07 | 3.07 | 87 | 998.8 |
| 20260507183504 | 17 | 262 | 11.3 | 22.5 | 0.00 | 3.07 | 3.07 | 87 | 998.8 |
| 20260507183012 | 17 | 231 | 11.3 | 22.5 | 0.00 | 3.07 | 3.07 | 88 | 998.6 |
| 20260507182508 | 17 | 267 | 12.9 | 20.9 | 0.00 | 3.07 | 3.07 | 89 | 998.5 |
| 20260507182008 | 17 | 258 | 6.4 | 16.1 | 0.00 | 3.07 | 3.07 | 89 | 998.2 |
| 20260507181516 | 17 | 258 | 8.0 | 16.1 | 0.00 | 3.07 | 3.07 | 89 | 997.9 |
| 20260507181006 | 17 | 270 | 4.8 | 12.9 | 0.00 | 3.07 | 3.07 | 89 | 997.3 |
| 20260507180511 | 17 | 296 | 8.0 | 12.9 | 0.00 | 3.07 | 3.07 | 89 | 996.9 |
| 20260507180022 | 17 | 337 | 3.2 | 12.9 | 0.00 | 3.07 | 3.07 | 89 | 996.8 |
| 20260507175509 | 17 | 9 | 4.8 | 14.5 | 0.00 | 3.07 | 3.07 | 89 | 997.2 |
| 20260507175008 | 16 | 336 | 8.0 | 14.5 | 0.00 | 3.07 | 3.07 | 89 | 997.6 |
| 20260507174526 | 16 | 322 | 4.8 | 12.9 | 0.00 | 3.07 | 3.07 | 90 | 997.9 |
| 20260507174009 | 16 | 332 | 6.4 | 17.7 | 0.00 | 3.07 | 3.07 | 90 | 997.9 |
| 20260507173510 | 16 | 339 | 9.7 | 17.7 | 0.00 | 3.07 | 3.07 | 90 | 997.2 |
| 20260507173010 | 16 | 2 | 8.0 | 16.1 | 0.00 | 3.07 | 3.07 | 90 | 997.4 |
| 20260507172507 | 16 | 3 | 8.0 | 17.7 | 0.00 | 3.07 | 3.07 | 90 | 997.4 |
| 20260507172006 | 16 | 347 | 8.0 | 17.7 | 0.00 | 3.07 | 3.07 | 89 | 997.4 |
| 20260507171513 | 16 | 19 | 6.4 | 19.3 | 0.00 | 3.07 | 3.07 | 90 | 997.3 |
| 20260507171008 | 16 | 335 | 6.4 | 22.5 | 0.00 | 3.07 | 3.07 | 89 | 997.6 |
| 20260507170510 | 16 | 8 | 9.7 | 24.1 | 0.00 | 3.07 | 3.07 | 89 | 998.2 |
| 20260507170022 | 16 | 291 | 11.3 | 24.1 | 0.00 | 3.07 | 3.07 | 90 | 998.7 |
| 20260507165510 | 16 | 334 | 9.7 | 20.9 | 0.03 | 3.07 | 3.07 | 90 | 998.7 |
| 20260507165014 | 16 | 328 | 6.4 | 22.5 | 0.03 | 3.07 | 3.07 | 90 | 998.6 |
| 20260507164522 | 16 | 290 | 6.4 | 22.5 | 0.03 | 3.07 | 3.07 | 90 | 998.3 |
| 20260507164008 | 16 | 312 | 11.3 | 19.3 | 0.03 | 3.07 | 3.07 | 90 | 998.6 |
| 20260507163510 | 16 | 318 | 9.7 | 19.3 | 0.03 | 3.07 | 3.07 | 91 | 998.8 |
| 20260507163028 | 16 | 308 | 9.7 | 17.7 | 0.05 | 3.07 | 3.07 | 91 | 999.0 |
| 20260507162510 | 16 | 2 | 11.3 | 19.3 | 0.05 | 3.07 | 3.07 | 91 | 998.9 |
| 20260507162004 | 16 | 290 | 14.5 | 19.3 | 0.05 | 3.07 | 3.07 | 91 | 999.0 |
| 20260507161513 | 16 | 322 | 9.7 | 16.1 | 0.05 | 3.07 | 3.07 | 91 | 998.9 |
| 20260507161008 | 16 | 281 | 8.0 | 20.9 | 0.08 | 3.07 | 3.07 | 91 | 999.0 |
| 20260507160506 | 16 | 281 | 9.7 | 20.9 | 0.08 | 3.07 | 3.07 | 91 | 999.2 |
| 20260507160020 | 16 | 289 | 8.0 | 17.7 | 0.08 | 3.07 | 3.07 | 91 | 999.7 |
| 20260507155509 | 16 | 310 | 8.0 | 17.7 | 0.05 | 3.05 | 3.05 | 91 | 1000.0 |
| 20260507155011 | 16 | 266 | 4.8 | 20.9 | 0.05 | 3.05 | 3.05 | 92 | 1000.1 |
| 20260507154523 | 16 | 287 | 11.3 | 20.9 | 0.05 | 3.05 | 3.05 | 92 | 1000.2 |
| 20260507154010 | 16 | 313 | 3.2 | 17.7 | 0.05 | 3.05 | 3.05 | 92 | 1000.1 |
| 20260507153508 | 16 | 281 | 9.7 | 17.7 | 0.05 | 3.05 | 3.05 | 92 | 1000.0 |
| 20260507153031 | 16 | 299 | 6.4 | 16.1 | 0.03 | 3.02 | 3.02 | 93 | 1000.0 |
| 20260507152510 | 16 | 319 | 4.8 | 11.3 | 0.03 | 3.02 | 3.02 | 93 | 999.8 |
| 20260507152011 | 16 | 297 | 4.8 | 12.9 | 0.03 | 3.02 | 3.02 | 93 | 1000.2 |
| 20260507151526 | 16 | 287 | 6.4 | 16.1 | 0.03 | 3.02 | 3.02 | 93 | 1000.3 |
| 20260507151010 | 16 | 322 | 6.4 | 16.1 | 0.00 | 2.97 | 2.97 | 93 | 1000.7 |
| 20260507150508 | 16 | 301 | 8.0 | 14.5 | 0.00 | 2.97 | 2.97 | 93 | 1001.2 |
| 20260507150014 | 16 | 310 | 6.4 | 16.1 | 0.03 | 2.97 | 2.97 | 93 | 1001.0 |
| 20260507145510 | 16 | 318 | 6.4 | 16.1 | 0.05 | 2.97 | 2.97 | 93 | 1000.4 |
| 20260507145009 | 16 | 295 | 11.3 | 16.1 | 0.08 | 2.97 | 2.97 | 93 | 1000.8 |
| 20260507144522 | 16 | 321 | 8.0 | 16.1 | 0.15 | 2.97 | 2.97 | 93 | 1000.5 |
| 20260507144010 | 16 | 321 | 8.0 | 17.7 | 0.18 | 2.97 | 2.97 | 92 | 1000.4 |
| 20260507143507 | 16 | 326 | 9.7 | 17.7 | 0.20 | 2.97 | 2.97 | 92 | 1000.5 |
| 20260507143026 | 16 | 316 | 9.7 | 17.7 | 0.23 | 2.97 | 2.97 | 92 | 1000.8 |
| 20260507142508 | 16 | 317 | 6.4 | 16.1 | 0.25 | 2.97 | 2.97 | 92 | 1000.7 |
| 20260507142010 | 16 | 345 | 4.8 | 20.9 | 0.25 | 2.97 | 2.97 | 92 | 1000.2 |
| 20260507141527 | 16 | 319 | 3.2 | 20.9 | 0.25 | 2.97 | 2.97 | 92 | 1000.4 |
| 20260507141010 | 16 | 309 | 8.0 | 19.3 | 0.25 | 2.97 | 2.97 | 92 | 1000.8 |
| 20260507140512 | 16 | 288 | 6.4 | 16.1 | 0.25 | 2.97 | 2.97 | 92 | 1000.5 |
| 20260507140030 | 16 | 289 | 9.7 | 16.1 | 0.23 | 2.95 | 2.95 | 92 | 999.7 |
| 20260507135507 | 16 | 316 | 9.7 | 22.5 | 0.20 | 2.95 | 2.95 | 92 | 999.5 |
| 20260507135006 | 16 | 276 | 12.9 | 25.7 | 0.18 | 2.92 | 2.92 | 91 | 999.8 |
| 20260507134520 | 16 | 242 | 12.9 | 25.7 | 0.10 | 2.84 | 2.84 | 91 | 1000.7 |
| 20260507134006 | 16 | 305 | 8.0 | 27.4 | 0.08 | 2.82 | 2.82 | 91 | 1001.2 |
| 20260507133510 | 16 | 286 | 12.9 | 27.4 | 0.05 | 2.79 | 2.79 | 90 | 1001.4 |
| 20260507133003 | 16 | 299 | 9.7 | 22.5 | 0.03 | 2.77 | 2.77 | 90 | 1001.0 |
| 20260507132505 | 16 | 283 | 11.3 | 19.3 | 0.00 | 2.74 | 2.74 | 90 | 1001.0 |
| 20260507132005 | 16 | 278 | 8.0 | 19.3 | 0.00 | 2.74 | 2.74 | 90 | 1000.7 |
| 20260507131504 | 16 | 270 | 3.2 | 14.5 | 0.00 | 2.74 | 2.74 | 90 | 999.6 |
| 20260507131004 | 16 | 249 | 8.0 | 14.5 | 0.00 | 2.74 | 2.74 | 90 | 999.5 |
| 20260507130507 | 16 | 299 | 8.0 | 25.7 | 0.00 | 2.74 | 2.74 | 89 | 1000.1 |
| 20260507130011 | 16 | 254 | 11.3 | 24.1 | 0.00 | 2.74 | 2.74 | 89 | 1000.5 |
| 20260507125504 | 16 | 288 | 11.3 | 29.0 | 0.00 | 2.74 | 2.74 | 89 | 1001.2 |
| 20260507125006 | 16 | 273 | 6.4 | 32.2 | 0.00 | 2.74 | 2.74 | 89 | 1001.5 |
| 20260507124519 | 16 | 256 | 20.9 | 32.2 | 0.00 | 2.74 | 2.74 | 89 | 1002.1 |
| 20260507124012 | 16 | 270 | 6.4 | 14.5 | 0.00 | 2.74 | 2.74 | 90 | 1000.7 |
| 20260507123511 | 16 | 209 | 4.8 | 19.3 | 0.00 | 2.74 | 2.74 | 90 | 1000.0 |
| 20260507123025 | 16 | 249 | 8.0 | 22.5 | 0.00 | 2.74 | 2.74 | 90 | 1000.6 |
| 20260507122505 | 16 | 272 | 9.7 | 22.5 | 0.00 | 2.74 | 2.74 | 90 | 1000.0 |
| 20260507122005 | 16 | 231 | 12.9 | 22.5 | 0.00 | 2.74 | 2.74 | 90 | 999.3 |
| 20260507121504 | 16 | 291 | 8.0 | 17.7 | 0.00 | 2.74 | 2.74 | 91 | 998.8 |
| 20260507121005 | 16 | 297 | 8.0 | 19.3 | 0.00 | 2.74 | 2.74 | 90 | 998.1 |
| 20260507120505 | 16 | 302 | 8.0 | 19.3 | 0.00 | 2.74 | 2.74 | 91 | 998.2 |
| 20260507120011 | 16 | 308 | 6.4 | 16.1 | 0.00 | 2.74 | 2.74 | 91 | 998.3 |